Time;durP1;ratioP1;P1;durP2;ratioP2;P2;SDS_P1;SDS_P2;PMS_P1;PMS_P2;Temp;Humidity;BMP_temperature;BMP_pressure;BME280_temperature;BME280_humidity;BME280_pressure;Samples;Min_cycle;Max_cycle;Signal;HPM_P1;HPM_P2
2023/02/04 00:00:57;;;;;;;162.20;96.72;;;128.50;2252.80;;;;;;5039910;28;20048;-90
2023/02/04 00:03:23;;;;;;;123.50;77.90;;;128.50;2252.80;;;;;;5039576;28;20032;-90
2023/02/04 00:05:48;;;;;;;146.05;89.53;;;128.50;2252.80;;;;;;5039525;28;20029;-90
2023/02/04 00:08:14;;;;;;;144.43;84.95;;;128.50;2252.80;;;;;;5039331;28;20017;-92
2023/02/04 00:10:40;;;;;;;150.63;91.20;;;128.50;2252.80;;;;;;5039474;28;20032;-90
2023/02/04 00:13:05;;;;;;;142.40;89.93;;;128.40;2252.80;;;;;;5039374;28;20029;-91
2023/02/04 00:15:31;;;;;;;123.28;83.90;;;128.40;2252.80;;;;;;5039352;28;20123;-91
2023/02/04 00:17:57;;;;;;;118.47;79.68;;;128.40;2252.80;;;;;;5055892;28;20060;-91
2023/02/04 00:20:23;;;;;;;113.88;75.22;;;128.30;2252.80;;;;;;5039383;28;20040;-90
2023/02/04 00:22:50;;;;;;;114.50;74.38;;;128.30;2252.80;;;;;;5038878;28;20045;-91
2023/02/04 00:25:16;;;;;;;118.95;78.63;;;128.40;2252.80;;;;;;5039214;28;20506;-91
2023/02/04 00:27:41;;;;;;;96.93;63.60;;;128.40;2252.80;;;;;;5039407;28;20025;-91
2023/02/04 00:30:08;;;;;;;74.32;49.38;;;128.30;2252.80;;;;;;5039172;28;20461;-91
2023/02/04 00:32:33;;;;;;;58.45;40.30;;;128.20;2252.80;;;;;;5038950;28;20063;-90
2023/02/04 00:35:00;;;;;;;48.10;35.63;;;128.30;2252.80;;;;;;5039090;28;20092;-92
2023/02/04 00:37:26;;;;;;;61.10;39.38;;;128.30;2252.80;;;;;;5039003;28;20041;-92
2023/02/04 00:39:52;;;;;;;49.33;36.15;;;128.30;2252.80;;;;;;5038810;28;20465;-89
2023/02/04 00:42:18;;;;;;;62.95;40.60;;;128.30;2252.80;;;;;;5038714;28;20106;-93
2023/02/04 00:44:43;;;;;;;77.05;53.00;;;128.30;2252.80;;;;;;5038825;28;20033;-92
2023/02/04 00:47:09;;;;;;;95.70;61.25;;;128.30;2252.80;;;;;;5038585;28;20021;-90
2023/02/04 00:49:35;;;;;;;77.10;48.95;;;128.40;2252.80;;;;;;5038668;28;20047;-91
2023/02/04 00:52:01;;;;;;;73.88;47.85;;;128.40;2252.80;;;;;;5038847;28;20021;-91
2023/02/04 00:54:27;;;;;;;64.28;43.85;;;128.40;2252.80;;;;;;5038454;28;20035;-90
2023/02/04 00:56:53;;;;;;;61.22;44.53;;;128.40;2252.80;;;;;;5038543;28;20025;-92
2023/02/04 00:59:19;;;;;;;64.78;45.42;;;128.20;2252.80;;;;;;5055174;28;20057;-91
2023/02/04 01:01:44;;;;;;;68.28;43.42;;;128.20;2252.80;;;;;;5038624;28;20104;-93
2023/02/04 01:04:10;;;;;;;77.53;49.45;;;128.30;2252.80;;;;;;5038482;28;20063;-92
2023/02/04 01:06:36;;;;;;;78.72;48.85;;;128.40;2252.80;;;;;;5038640;28;20123;-91
2023/02/04 01:09:03;;;;;;;77.18;47.15;;;128.40;2252.80;;;;;;5038205;28;20029;-93
2023/02/04 01:11:30;;;;;;;74.00;44.85;;;128.40;2252.80;;;;;;5038429;28;20029;-92
2023/02/04 01:13:56;;;;;;;48.03;31.58;;;128.50;2252.80;;;;;;5038279;28;20056;-91
2023/02/04 01:16:22;;;;;;;44.25;28.70;;;128.50;2252.80;;;;;;5038239;28;20063;-91
2023/02/04 01:18:48;;;;;;;62.10;38.58;;;128.50;2252.80;;;;;;5038223;28;20036;-91
2023/02/04 01:21:13;;;;;;;61.13;38.42;;;128.40;2252.80;;;;;;5038043;28;20044;-90
2023/02/04 01:23:39;;;;;;;52.05;32.75;;;128.50;2252.80;;;;;;5038177;28;20460;-91
2023/02/04 01:26:05;;;;;;;36.30;22.92;;;128.70;2252.80;;;;;;5038188;28;20029;-91
2023/02/04 01:28:31;;;;;;;31.58;21.17;;;128.50;2252.80;;;;;;5038178;28;20024;-92
2023/02/04 01:30:57;;;;;;;32.78;21.23;;;128.50;2252.80;;;;;;5038211;28;20438;-92
2023/02/04 01:33:22;;;;;;;34.80;20.48;;;128.50;2252.80;;;;;;5037169;28;20416;-92
2023/02/04 01:35:48;;;;;;;28.95;18.63;;;128.50;2252.80;;;;;;5037958;28;20032;-92
2023/02/04 01:38:14;;;;;;;33.08;21.65;;;128.50;2252.80;;;;;;5037969;28;20029;-89
2023/02/04 01:40:41;;;;;;;21.58;14.48;;;128.60;2252.80;;;;;;5037876;28;20025;-92
2023/02/04 01:43:07;;;;;;;21.25;13.88;;;128.60;2252.80;;;;;;5037648;28;20029;-91
2023/02/04 01:45:34;;;;;;;24.15;15.43;;;128.60;2252.80;;;;;;5037738;28;20028;-91
2023/02/04 01:48:04;;;;;;;20.50;13.82;;;128.50;2252.80;;;;;;5037634;28;20044;-92
2023/02/04 01:50:30;;;;;;;22.85;15.05;;;128.50;2252.80;;;;;;5037516;28;20044;-92
2023/02/04 01:52:56;;;;;;;30.42;17.60;;;128.50;2252.80;;;;;;5037684;28;20025;-90
2023/02/04 01:55:26;;;;;;;33.58;21.65;;;128.50;2252.80;;;;;;5037498;28;20035;-90
2023/02/04 01:57:52;;;;;;;50.55;29.15;;;128.60;2252.80;;;;;;5037218;28;20143;-90
2023/02/04 02:00:27;;;;;;;38.92;24.90;;;128.60;2252.80;;;;;;5033615;28;20047;-92
2023/02/04 02:02:54;;;;;;;42.15;26.83;;;128.50;2252.80;;;;;;5033574;28;20022;-91
2023/02/04 02:05:34;;;;;;;36.70;25.02;;;128.60;2252.80;;;;;;5033970;28;20481;-91
2023/02/04 02:08:02;;;;;;;29.65;19.77;;;128.70;2252.80;;;;;;5017651;28;20032;-91
2023/02/04 02:10:28;;;;;;;31.33;22.02;;;128.70;2252.80;;;;;;5034148;28;20025;-92
2023/02/04 02:12:55;;;;;;;23.88;16.08;;;128.60;2252.80;;;;;;5017584;28;20425;-91
2023/02/04 02:15:22;;;;;;;23.40;15.95;;;128.50;2252.80;;;;;;5034041;28;20038;-91
2023/02/04 02:17:48;;;;;;;20.33;15.68;;;128.40;2252.80;;;;;;5019178;28;20451;-91
2023/02/04 02:20:16;;;;;;;20.15;14.13;;;128.40;2252.80;;;;;;5055550;28;20128;-89
2023/02/04 02:22:51;;;;;;;19.92;13.23;;;128.40;2252.80;;;;;;5056861;28;20147;-92
2023/02/04 02:25:17;;;;;;;18.73;12.68;;;128.30;2252.80;;;;;;5057356;28;20033;-92
2023/02/04 02:27:43;;;;;;;17.92;12.73;;;128.20;2252.80;;;;;;5057456;28;20029;-92
2023/02/04 02:30:10;;;;;;;28.08;17.90;;;128.30;2252.80;;;;;;5057113;28;20456;-92
2023/02/04 02:32:37;;;;;;;22.50;16.25;;;128.20;2252.80;;;;;;5057063;28;20494;-90
2023/02/04 02:35:04;;;;;;;23.23;16.52;;;128.30;2252.80;;;;;;5056932;28;20024;-92
2023/02/04 02:37:30;;;;;;;27.60;19.92;;;128.40;2252.80;;;;;;5056851;28;20056;-91
2023/02/04 02:39:56;;;;;;;25.67;17.88;;;128.10;2252.80;;;;;;5056754;28;20035;-91
2023/02/04 02:42:22;;;;;;;24.52;17.55;;;128.50;2252.80;;;;;;5056884;28;20539;-91
2023/02/04 02:44:49;;;;;;;33.15;21.63;;;128.40;2252.80;;;;;;5056050;28;20028;-91
2023/02/04 02:47:17;;;;;;;42.53;27.70;;;128.50;2252.80;;;;;;5056748;28;20024;-91
2023/02/04 02:49:44;;;;;;;38.60;25.15;;;128.50;2252.80;;;;;;5056543;28;20025;-91
2023/02/04 02:52:12;;;;;;;41.60;27.50;;;128.50;2252.80;;;;;;5056564;28;20056;-90
2023/02/04 02:54:38;;;;;;;35.50;24.23;;;128.40;2252.80;;;;;;5056746;28;20056;-91
2023/02/04 02:57:12;;;;;;;32.50;23.48;;;128.40;2252.80;;;;;;5056973;28;20459;-91
2023/02/04 02:59:37;;;;;;;35.13;24.02;;;128.40;2252.80;;;;;;5056830;28;20024;-92
2023/02/04 03:02:05;;;;;;;32.00;21.05;;;128.40;2252.80;;;;;;5056617;28;20025;-92
2023/02/04 03:04:34;;;;;;;33.78;22.30;;;128.50;2252.80;;;;;;5056726;28;20032;-91
2023/02/04 03:07:00;;;;;;;28.60;19.17;;;128.40;2252.80;;;;;;5056568;28;20029;-91
2023/02/04 03:09:28;;;;;;;26.33;17.17;;;128.40;2252.80;;;;;;5056697;28;20029;-90
2023/02/04 03:11:54;;;;;;;27.58;17.33;;;128.40;2252.80;;;;;;5056614;28;20047;-91
2023/02/04 03:14:23;;;;;;;19.58;13.85;;;128.40;2252.80;;;;;;5056293;28;20028;-92
2023/02/04 03:16:50;;;;;;;22.83;14.18;;;128.40;2201.60;;;;;;5056552;28;20056;-91
2023/02/04 03:19:15;;;;;;;22.90;15.07;;;128.40;2252.80;;;;;;5056555;28;20204;-91
2023/02/04 03:21:42;;;;;;;23.02;15.93;;;128.40;2150.40;;;;;;5055848;28;20080;-91
2023/02/04 03:24:08;;;;;;;22.20;15.05;;;128.30;2150.40;;;;;;5056360;28;20029;-91
2023/02/04 03:26:34;;;;;;;22.50;13.60;;;128.30;2252.80;;;;;;5056296;28;20078;-91
2023/02/04 03:29:00;;;;;;;15.05;9.77;;;128.40;2252.80;;;;;;5056295;28;20024;-91
2023/02/04 03:31:26;;;;;;;13.10;8.00;;;128.40;2252.80;;;;;;5056387;28;20025;-92
2023/02/04 03:33:52;;;;;;;15.63;7.90;;;128.40;2252.80;;;;;;5056106;28;20021;-92
2023/02/04 03:36:18;;;;;;;18.77;9.70;;;128.40;2252.80;;;;;;5056139;28;20482;-90
2023/02/04 03:38:44;;;;;;;11.95;6.90;;;128.50;2252.80;;;;;;5056367;28;20025;-90
2023/02/04 03:41:10;;;;;;;16.30;8.55;;;128.50;2252.80;;;;;;5056118;28;20039;-92
2023/02/04 03:43:36;;;;;;;16.83;7.45;;;128.60;2252.80;;;;;;5056072;28;20078;-91
2023/02/04 03:46:02;;;;;;;10.10;4.78;;;128.60;2252.80;;;;;;5056318;28;20039;-91
2023/02/04 03:48:27;;;;;;;14.55;7.03;;;128.70;2252.80;;;;;;5056134;28;20028;-92
2023/02/04 03:50:53;;;;;;;17.02;7.85;;;128.70;2252.80;;;;;;5056440;28;20025;-91
2023/02/04 03:53:20;;;;;;;10.82;6.38;;;128.70;2252.80;;;;;;5041434;28;20056;-93
2023/02/04 03:55:46;;;;;;;12.85;7.05;;;128.80;2252.80;;;;;;5052493;28;20033;-91
2023/02/04 03:58:12;;;;;;;19.48;11.88;;;128.80;2252.80;;;;;;5056764;28;20051;-91
2023/02/04 04:00:38;;;;;;;24.17;13.93;;;128.80;2252.80;;;;;;5039887;28;20075;-91
2023/02/04 04:03:04;;;;;;;18.50;14.00;;;128.80;2252.80;;;;;;5039488;28;20121;-91
2023/02/04 04:05:29;;;;;;;17.73;10.07;;;128.70;2252.80;;;;;;5039631;28;20033;-91
2023/02/04 04:07:55;;;;;;;9.20;5.32;;;128.70;2252.80;;;;;;5039747;28;20032;-92
2023/02/04 04:10:21;;;;;;;9.57;4.97;;;128.60;2252.80;;;;;;5056385;28;20078;-90
2023/02/04 04:12:47;;;;;;;7.68;4.10;;;128.60;2252.80;;;;;;5056301;28;20388;-92
2023/02/04 04:15:13;;;;;;;7.10;4.00;;;128.60;2252.80;;;;;;5056058;28;20082;-92
2023/02/04 04:17:39;;;;;;;6.57;4.00;;;128.70;2252.80;;;;;;5056069;28;20063;-92
2023/02/04 04:20:05;;;;;;;9.25;5.40;;;128.70;2252.80;;;;;;5056023;28;20526;-92
2023/02/04 04:22:31;;;;;;;6.32;4.70;;;128.70;2252.80;;;;;;5055813;28;20052;-91
2023/02/04 04:24:57;;;;;;;11.00;3.65;;;128.70;2252.80;;;;;;5055780;28;20366;-91
2023/02/04 04:27:23;;;;;;;6.80;3.60;;;128.70;2252.80;;;;;;5056007;28;20063;-90
2023/02/04 04:29:49;;;;;;;5.38;2.70;;;128.70;2252.80;;;;;;5055811;28;20032;-89
2023/02/04 04:32:14;;;;;;;6.72;2.80;;;128.70;2252.80;;;;;;5055877;28;20021;-90
2023/02/04 04:34:40;;;;;;;4.80;2.53;;;128.60;2252.80;;;;;;5055843;28;20033;-88
2023/02/04 04:37:06;;;;;;;7.28;3.90;;;128.70;2252.80;;;;;;5055772;28;20079;-89
2023/02/04 04:39:32;;;;;;;7.05;3.40;;;128.70;2252.80;;;;;;5055627;28;20029;-91
2023/02/04 04:41:58;;;;;;;8.07;3.78;;;128.80;2252.80;;;;;;5055775;28;20025;-90
2023/02/04 04:44:24;;;;;;;5.30;2.90;;;128.80;2252.80;;;;;;5055649;28;20449;-90
2023/02/04 04:46:50;;;;;;;5.90;2.90;;;128.80;2252.80;;;;;;5055686;28;20029;-91
2023/02/04 04:49:15;;;;;;;6.22;3.10;;;128.90;2252.80;;;;;;5056010;28;20453;-92
2023/02/04 04:51:41;;;;;;;7.00;3.63;;;128.90;2252.80;;;;;;5055565;28;20029;-90
2023/02/04 04:54:07;;;;;;;5.13;2.30;;;128.90;2252.80;;;;;;5055416;28;20385;-91
2023/02/04 04:56:33;;;;;;;7.43;3.50;;;153.60;2252.80;;;;;;5055130;28;20033;-93
2023/02/04 04:58:59;;;;;;;7.07;3.25;;;128.90;2252.80;;;;;;5055023;28;20025;-93
2023/02/04 05:01:24;;;;;;;6.25;3.20;;;153.60;2252.80;;;;;;5055170;28;20029;-91
2023/02/04 05:03:50;;;;;;;7.85;3.30;;;153.60;2252.80;;;;;;5055242;28;20482;-91
2023/02/04 05:06:16;;;;;;;6.78;3.28;;;153.60;2252.80;;;;;;5055144;28;20401;-90
2023/02/04 05:08:42;;;;;;;7.40;4.25;;;153.60;2252.80;;;;;;5054119;28;20488;-91
2023/02/04 05:11:08;;;;;;;9.57;4.38;;;153.60;2252.80;;;;;;5055136;28;20032;-91
2023/02/04 05:13:33;;;;;;;8.70;3.92;;;153.70;2252.80;;;;;;5054972;28;20024;-90
2023/02/04 05:15:59;;;;;;;7.85;4.10;;;153.70;2252.80;;;;;;5054927;28;20464;-91
2023/02/04 05:18:25;;;;;;;11.73;5.22;;;153.70;2252.80;;;;;;5054797;28;20051;-90
2023/02/04 05:20:51;;;;;;;11.00;5.50;;;153.70;2252.80;;;;;;5054255;28;20075;-91
2023/02/04 05:23:16;;;;;;;7.07;3.53;;;153.70;2252.80;;;;;;5055007;28;20083;-92
2023/02/04 05:25:42;;;;;;;9.88;3.88;;;153.70;2252.80;;;;;;5054910;28;20036;-91
2023/02/04 05:28:08;;;;;;;4.38;2.50;;;153.70;2252.80;;;;;;5054468;28;20522;-91
2023/02/04 05:30:34;;;;;;;8.52;2.50;;;153.80;2252.80;;;;;;5054750;28;20029;-90
2023/02/04 05:32:59;;;;;;;6.22;3.50;;;153.80;2252.80;;;;;;5054795;28;20460;-94
2023/02/04 05:35:25;;;;;;;7.30;4.03;;;153.80;2252.80;;;;;;5054912;28;20029;-90
2023/02/04 05:37:51;;;;;;;11.38;5.20;;;153.70;2252.80;;;;;;5054924;28;20033;-92
2023/02/04 05:40:17;;;;;;;5.72;3.00;;;153.80;2252.80;;;;;;5054795;28;20487;-92
2023/02/04 05:42:43;;;;;;;6.97;4.07;;;153.70;2252.80;;;;;;5054692;28;20098;-92
2023/02/04 05:45:14;;;;;;;7.50;3.67;;;153.70;2252.80;;;;;;5054523;28;20040;-90
2023/02/04 05:47:39;;;;;;;5.80;3.30;;;153.80;2252.80;;;;;;5054550;28;20029;-89
2023/02/04 05:50:06;;;;;;;11.93;5.82;;;153.80;2252.80;;;;;;5054489;28;20033;-91
2023/02/04 05:52:32;;;;;;;14.25;6.50;;;153.80;2252.80;;;;;;5046035;28;20025;-91
2023/02/04 05:54:58;;;;;;;10.13;5.13;;;153.80;2252.80;;;;;;5017878;28;20331;-90
2023/02/04 05:57:24;;;;;;;8.95;4.35;;;153.70;2252.80;;;;;;5018091;28;20030;-90
2023/02/04 05:59:49;;;;;;;9.88;4.10;;;153.70;2252.80;;;;;;5028929;28;20117;-90
2023/02/04 06:02:15;;;;;;;10.05;5.28;;;153.60;2252.80;;;;;;5058345;28;20010;-90
2023/02/04 06:04:43;;;;;;;8.45;4.57;;;153.60;2252.80;;;;;;5042052;28;20020;-89
2023/02/04 06:07:09;;;;;;;9.52;4.35;;;128.90;2252.80;;;;;;5041935;28;20017;-92
2023/02/04 06:09:34;;;;;;;8.30;3.97;;;128.90;2252.80;;;;;;5041809;28;20056;-89
2023/02/04 06:12:00;;;;;;;10.07;4.60;;;128.90;2252.80;;;;;;5040339;28;20006;-89
2023/02/04 06:14:26;;;;;;;18.20;7.72;;;128.80;2252.80;;;;;;5021648;28;20055;-93
2023/02/04 06:16:52;;;;;;;12.90;5.50;;;128.90;2252.80;;;;;;5020541;28;20041;-91
2023/02/04 06:19:18;;;;;;;10.82;5.47;;;128.80;2252.80;;;;;;5020735;28;20373;-89
2023/02/04 06:21:44;;;;;;;10.80;6.13;;;128.80;2252.80;;;;;;5019955;28;20095;-91
2023/02/04 06:24:10;;;;;;;7.55;4.13;;;128.80;2252.80;;;;;;5020235;28;20040;-91
2023/02/04 06:26:35;;;;;;;9.20;4.00;;;128.80;2252.80;;;;;;5020460;28;20606;-90
2023/02/04 06:29:01;;;;;;;8.07;4.38;;;128.80;2252.80;;;;;;5020649;28;20124;-90
2023/02/04 06:31:27;;;;;;;10.32;5.60;;;128.90;2252.80;;;;;;5021127;28;20029;-93
2023/02/04 06:33:53;;;;;;;15.73;8.00;;;128.80;2252.80;;;;;;5019705;28;20025;-91
2023/02/04 06:36:19;;;;;;;12.82;8.40;;;128.70;2252.80;;;;;;5017128;28;20120;-90
2023/02/04 06:38:45;;;;;;;28.27;16.08;;;128.70;2252.80;;;;;;5017307;28;20039;-89
2023/02/04 06:41:11;;;;;;;25.90;14.73;;;128.80;2252.80;;;;;;5017145;28;20420;-91
2023/02/04 06:43:36;;;;;;;23.65;13.60;;;128.90;2252.80;;;;;;5017122;28;20495;-92
2023/02/04 06:46:02;;;;;;;23.77;13.57;;;128.90;2252.80;;;;;;5031044;28;20052;-92
2023/02/04 06:48:28;;;;;;;19.17;13.05;;;128.90;2252.80;;;;;;5036615;28;20453;-91
2023/02/04 06:50:54;;;;;;;23.50;12.38;;;128.90;2252.80;;;;;;5052864;28;20461;-90
2023/02/04 06:53:20;;;;;;;17.73;8.35;;;128.90;2252.80;;;;;;5036761;28;20033;-91
2023/02/04 06:55:46;;;;;;;24.48;11.43;;;128.90;2252.80;;;;;;5053363;28;20123;-90
2023/02/04 06:58:12;;;;;;;27.02;10.20;;;128.90;2252.80;;;;;;5036237;28;20040;-90
2023/02/04 07:00:38;;;;;;;16.92;9.70;;;128.90;2252.80;;;;;;5028907;28;20029;-90
2023/02/04 07:03:06;;;;;;;14.05;7.80;;;128.90;2252.80;;;;;;5016895;28;20033;-92
2023/02/04 07:05:32;;;;;;;15.45;7.95;;;128.90;2252.80;;;;;;5016660;28;20033;-91
2023/02/04 07:07:59;;;;;;;9.75;5.30;;;128.90;2252.80;;;;;;5017081;28;20524;-91
2023/02/04 07:10:24;;;;;;;16.83;8.82;;;128.90;2252.80;;;;;;5017152;28;20026;-90
2023/02/04 07:12:50;;;;;;;10.88;4.82;;;128.90;2252.80;;;;;;5016653;28;20080;-88
2023/02/04 07:15:16;;;;;;;15.80;8.13;;;128.90;2252.80;;;;;;5016671;28;20034;-91
2023/02/04 07:17:42;;;;;;;14.98;7.28;;;128.90;2252.80;;;;;;5016915;28;20029;-91
2023/02/04 07:20:09;;;;;;;22.77;12.93;;;128.90;2252.80;;;;;;5016761;28;20113;-90
2023/02/04 07:22:35;;;;;;;15.07;8.93;;;153.60;2252.80;;;;;;5016418;28;20053;-91
2023/02/04 07:25:01;;;;;;;19.40;10.77;;;128.90;2252.80;;;;;;5016628;28;20365;-91
2023/02/04 07:27:27;;;;;;;16.77;9.82;;;128.90;2252.80;;;;;;5017280;28;20064;-90
2023/02/04 07:29:52;;;;;;;32.83;20.08;;;128.90;2252.80;;;;;;5017062;28;20033;-91
2023/02/04 07:32:18;;;;;;;18.17;9.98;;;128.90;2252.80;;;;;;5018434;28;20032;-90
2023/02/04 07:34:44;;;;;;;16.85;11.93;;;128.90;2252.80;;;;;;5020523;28;20424;-90
2023/02/04 07:37:10;;;;;;;14.10;9.60;;;153.60;2252.80;;;;;;5020602;28;20030;-92
2023/02/04 07:39:36;;;;;;;7.32;5.03;;;153.60;2252.80;;;;;;5020407;28;20037;-91
2023/02/04 07:42:02;;;;;;;9.80;6.30;;;153.60;2252.80;;;;;;5020325;28;20053;-92
2023/02/04 07:44:28;;;;;;;15.30;9.82;;;153.60;2252.80;;;;;;5020311;28;20025;-92
2023/02/04 07:46:53;;;;;;;11.98;7.25;;;153.70;2252.80;;;;;;5019918;28;20030;-90
2023/02/04 07:49:19;;;;;;;21.13;13.18;;;153.70;2252.80;;;;;;5019963;28;20075;-90
2023/02/04 07:51:45;;;;;;;14.68;9.55;;;153.70;2252.80;;;;;;5019741;28;20120;-90
2023/02/04 07:54:11;;;;;;;16.60;10.18;;;153.70;2252.80;;;;;;5020082;28;20121;-91
2023/02/04 07:56:37;;;;;;;24.83;14.38;;;153.70;2252.80;;;;;;5019975;28;20033;-92
2023/02/04 07:59:03;;;;;;;27.42;16.45;;;153.80;2252.80;;;;;;5020379;28;20036;-93
2023/02/04 08:01:28;;;;;;;18.30;11.63;;;153.80;2252.80;;;;;;5027075;28;20512;-87
2023/02/04 08:03:54;;;;;;;30.33;17.70;;;153.80;2252.80;;;;;;5055292;28;20029;-90
2023/02/04 08:06:20;;;;;;;23.98;15.30;;;153.80;2252.80;;;;;;5038252;28;20025;-89
2023/02/04 08:08:46;;;;;;;22.02;15.40;;;153.80;2252.80;;;;;;5038956;28;20029;-85
2023/02/04 08:11:12;;;;;;;21.30;11.48;;;153.80;2252.80;;;;;;5039204;28;20032;-87
2023/02/04 08:13:37;;;;;;;12.48;7.35;;;153.90;2252.80;;;;;;5038909;28;20029;-86
2023/02/04 08:16:04;;;;;;;16.05;7.43;;;154.00;2252.80;;;;;;5055191;28;20123;-84
2023/02/04 08:18:30;;;;;;;14.23;8.75;;;154.00;2252.80;;;;;;5055475;28;20077;-87
2023/02/04 08:20:56;;;;;;;31.35;16.85;;;153.90;2252.80;;;;;;5054637;28;20454;-85
2023/02/04 08:23:22;;;;;;;21.00;11.82;;;154.00;2252.80;;;;;;5038921;28;20035;-83
2023/02/04 08:25:47;;;;;;;19.52;11.63;;;154.00;2252.80;;;;;;5038824;28;20033;-85
2023/02/04 08:28:13;;;;;;;18.80;11.57;;;154.00;2252.80;;;;;;5054920;28;20454;-87
2023/02/04 08:30:39;;;;;;;14.02;8.10;;;154.00;2252.80;;;;;;5038280;28;20021;-86
2023/02/04 08:33:05;;;;;;;19.70;13.38;;;154.00;2252.80;;;;;;5055232;28;20028;-85
2023/02/04 08:35:31;;;;;;;12.65;7.57;;;154.00;2252.80;;;;;;5037644;28;20029;-87
2023/02/04 08:37:57;;;;;;;13.15;8.35;;;154.10;2252.80;;;;;;5055296;28;20445;-89
2023/02/04 08:40:23;;;;;;;20.65;12.63;;;154.10;2252.80;;;;;;5055219;28;20079;-88
2023/02/04 08:42:48;;;;;;;21.92;13.65;;;154.10;2252.80;;;;;;5038569;28;20032;-90
2023/02/04 08:45:14;;;;;;;14.55;9.20;;;154.20;2252.80;;;;;;5038298;28;20075;-81
2023/02/04 08:47:40;;;;;;;19.65;13.32;;;154.10;2252.80;;;;;;5054781;28;20028;-83
2023/02/04 08:50:08;;;;;;;14.77;9.02;;;154.10;2252.80;;;;;;5039083;28;20021;-91
2023/02/04 08:52:35;;;;;;;11.95;8.15;;;154.10;2252.80;;;;;;5055413;28;20032;-92
2023/02/04 08:55:01;;;;;;;14.77;9.45;;;154.10;2252.80;;;;;;5055281;28;20044;-92
2023/02/04 08:57:27;;;;;;;13.75;10.23;;;154.10;2252.80;;;;;;5055264;28;20033;-92
2023/02/04 08:59:53;;;;;;;9.25;7.00;;;154.10;2252.80;;;;;;5038215;28;20032;-90
2023/02/04 09:02:19;;;;;;;16.75;11.60;;;154.10;2252.80;;;;;;5021344;28;20061;-91
2023/02/04 09:04:44;;;;;;;19.92;11.45;;;154.10;2252.80;;;;;;5037835;28;20655;-90
2023/02/04 09:07:10;;;;;;;25.08;15.32;;;154.00;2252.80;;;;;;5038217;28;20040;-91
2023/02/04 09:09:36;;;;;;;20.45;11.82;;;154.10;2252.80;;;;;;5038387;28;20032;-92
2023/02/04 09:12:02;;;;;;;21.13;14.25;;;154.00;2252.80;;;;;;5037937;28;20079;-90
2023/02/04 09:14:28;;;;;;;20.48;12.73;;;154.00;2252.80;;;;;;5021550;28;20166;-89
2023/02/04 09:16:54;;;;;;;26.73;15.77;;;154.10;2252.80;;;;;;5038030;28;20517;-91
2023/02/04 09:19:24;;;;;;;23.85;16.55;;;154.10;2252.80;;;;;;5037976;28;20469;-90
2023/02/04 09:21:53;;;;;;;22.40;14.88;;;154.20;2252.80;;;;;;5037915;28;20045;-92
2023/02/04 09:24:22;;;;;;;29.55;18.77;;;154.20;2252.80;;;;;;5036897;28;20025;-90
2023/02/04 09:26:48;;;;;;;20.98;14.38;;;154.20;2252.80;;;;;;5037140;28;20369;-92
2023/02/04 09:29:14;;;;;;;24.05;17.63;;;179.20;2252.80;;;;;;5037410;28;20424;-91
2023/02/04 09:31:40;;;;;;;31.73;21.83;;;154.40;2252.80;;;;;;5039419;28;20021;-93
2023/02/04 09:34:07;;;;;;;13.77;11.27;;;154.40;2252.80;;;;;;5038072;28;20059;-91
2023/02/04 09:36:36;;;;;;;17.95;13.63;;;154.20;2252.80;;;;;;5037964;28;20060;-93
2023/02/04 09:39:08;;;;;;;20.08;12.93;;;154.40;2252.80;;;;;;5037642;28;20469;-92
2023/02/04 09:41:36;;;;;;;24.67;14.35;;;154.40;2252.80;;;;;;5037680;28;20033;-94
2023/02/04 09:44:04;;;;;;;16.58;10.25;;;154.50;2252.80;;;;;;5037715;28;20051;-92
2023/02/04 09:46:31;;;;;;;22.95;15.60;;;154.50;2252.80;;;;;;5037274;28;20482;-93
2023/02/04 09:48:58;;;;;;;22.58;15.10;;;154.40;2252.80;;;;;;5037867;28;20380;-92
2023/02/04 09:51:29;;;;;;;20.92;14.90;;;154.50;2252.80;;;;;;5037823;28;20182;-93
2023/02/04 09:54:06;;;;;;;20.27;14.20;;;154.50;2252.80;;;;;;5037120;28;20025;-92
2023/02/04 09:56:32;;;;;;;15.15;10.48;;;154.50;2252.80;;;;;;5037322;28;20033;-93
2023/02/04 09:58:58;;;;;;;21.38;12.63;;;154.50;2252.80;;;;;;5037558;28;20027;-92
2023/02/04 10:01:27;;;;;;;17.38;12.00;;;154.50;2252.80;;;;;;5037336;28;20024;-93
2023/02/04 10:03:57;;;;;;;15.63;9.50;;;154.50;2252.80;;;;;;5037719;28;20048;-94
2023/02/04 10:06:23;;;;;;;22.33;13.38;;;154.50;2252.80;;;;;;5036973;28;20484;-90
2023/02/04 10:08:50;;;;;;;16.48;10.90;;;154.50;2252.80;;;;;;5036842;28;20033;-91
2023/02/04 10:11:20;;;;;;;14.75;9.18;;;154.50;2252.80;;;;;;5037474;28;20078;-93
2023/02/04 10:13:52;;;;;;;21.92;10.68;;;154.40;2252.80;;;;;;5034861;28;20043;-89
2023/02/04 10:16:31;;;;;;;19.17;12.77;;;154.30;2252.80;;;;;;5035812;28;20067;-90
2023/02/04 10:19:03;;;;;;;10.38;7.50;;;154.30;2252.80;;;;;;5036288;28;20029;-90
2023/02/04 10:21:31;;;;;;;12.50;7.53;;;154.40;2252.80;;;;;;5035945;28;20107;-89
2023/02/04 10:24:00;;;;;;;21.58;11.43;;;154.30;2252.80;;;;;;5036923;28;20254;-90
2023/02/04 10:26:28;;;;;;;16.85;9.52;;;154.40;2252.80;;;;;;5036929;28;20036;-92
2023/02/04 10:29:03;;;;;;;15.40;8.65;;;154.30;2252.80;;;;;;5036753;28;20025;-90
2023/02/04 10:31:34;;;;;;;32.88;22.70;;;154.40;2252.80;;;;;;5035847;28;20021;-90
2023/02/04 10:34:21;;;;;;;11.52;7.78;;;154.30;2252.80;;;;;;5036100;28;20021;-91
2023/02/04 10:36:51;;;;;;;22.73;14.25;;;154.40;2252.80;;;;;;5054455;28;20480;-92
2023/02/04 10:39:29;;;;;;;23.05;13.95;;;154.40;2252.80;;;;;;5036622;28;20061;-89
2023/02/04 10:41:57;;;;;;;17.90;10.20;;;154.50;2252.80;;;;;;5036391;28;20025;-89
2023/02/04 10:44:30;;;;;;;25.60;13.85;;;154.50;2252.80;;;;;;5036795;28;20056;-90
2023/02/04 10:47:05;;;;;;;16.58;12.38;;;154.50;2252.80;;;;;;5036591;28;20063;-90
2023/02/04 10:49:31;;;;;;;12.50;8.23;;;179.20;2252.80;;;;;;5036693;28;20025;-88
2023/02/04 10:51:57;;;;;;;15.43;10.95;;;179.20;2252.80;;;;;;5036508;28;20079;-88
2023/02/04 10:54:37;;;;;;;17.05;10.80;;;179.30;2252.80;;;;;;5036315;28;20057;-89
2023/02/04 10:57:41;;;;;;;15.98;14.02;;;179.30;2252.80;;;;;;5037766;28;20051;-90
2023/02/04 11:00:22;;;;;;;7.22;4.80;;;179.40;2252.80;;;;;;5053822;28;20028;-91
2023/02/04 11:02:48;;;;;;;7.78;4.75;;;179.40;2252.80;;;;;;5036299;28;20094;-90
2023/02/04 11:05:18;;;;;;;11.48;9.27;;;179.50;2252.80;;;;;;5036394;28;20476;-90
2023/02/04 11:07:45;;;;;;;12.38;7.85;;;179.70;2252.80;;;;;;5039406;28;20480;-91
2023/02/04 11:10:23;;;;;;;10.02;5.40;;;179.80;2252.80;;;;;;5040267;28;20032;-88
2023/02/04 11:12:52;;;;;;;13.77;8.75;;;179.90;2252.80;;;;;;5040753;28;20021;-89
2023/02/04 11:15:47;;;;;;;9.40;6.40;;;180.10;2252.80;;;;;;5040496;28;20039;-90
2023/02/04 11:18:19;;;;;;;10.18;7.88;;;204.80;2252.80;;;;;;5040773;28;20079;-89
2023/02/04 11:20:45;;;;;;;9.23;5.85;;;205.00;2252.80;;;;;;5040127;28;20119;-90
2023/02/04 11:23:27;;;;;;;10.63;6.43;;;205.00;2252.80;;;;;;5040092;28;20021;-88
2023/02/04 11:26:17;;;;;;;16.73;8.82;;;205.00;2252.80;;;;;;5040547;28;20208;-91
2023/02/04 11:29:11;;;;;;;14.15;9.05;;;205.00;2252.80;;;;;;5040489;28;20075;-91
2023/02/04 11:31:57;;;;;;;23.50;13.15;;;205.00;2252.80;;;;;;5039963;28;20037;-90
2023/02/04 11:34:24;;;;;;;29.80;19.40;;;205.10;2252.80;;;;;;5040318;28;20135;-89
2023/02/04 11:36:55;;;;;;;19.52;10.75;;;205.20;2252.80;;;;;;5039946;28;20064;-91
2023/02/04 11:39:21;;;;;;;10.20;6.10;;;205.20;2252.80;;;;;;5040325;28;20116;-90
2023/02/04 11:41:47;;;;;;;11.70;7.47;;;205.20;2252.80;;;;;;5040379;28;20036;-90
2023/02/04 11:44:14;;;;;;;15.68;9.80;;;205.20;2252.80;;;;;;5039705;28;20021;-91
2023/02/04 11:46:40;;;;;;;15.43;10.25;;;205.60;2252.80;;;;;;5040133;28;20036;-90
2023/02/04 11:49:18;;;;;;;11.95;6.88;;;230.50;2252.80;;;;;;5040060;28;20024;-90
2023/02/04 11:51:45;;;;;;;8.30;5.10;;;205.70;2252.80;;;;;;5039666;28;20120;-91
2023/02/04 11:54:12;;;;;;;5.55;3.05;;;205.50;2252.80;;;;;;5039956;28;20488;-89
2023/02/04 11:56:38;;;;;;;9.00;4.35;;;205.20;2252.80;;;;;;5039830;28;20033;-90
2023/02/04 11:59:04;;;;;;;12.25;4.85;;;205.00;2252.80;;;;;;5039831;28;20358;-91
2023/02/04 12:01:31;;;;;;;16.50;7.65;;;180.10;2252.80;;;;;;5039943;28;20075;-92
2023/02/04 12:04:00;;;;;;;7.10;4.32;;;205.40;2252.80;;;;;;5039654;28;20070;-88